Time;durP1;ratioP1;P1;durP2;ratioP2;P2;SDS_P1;SDS_P2;PMS_P1;PMS_P2;Temp;Humidity;BMP_temperature;BMP_pressure;BME280_temperature;BME280_humidity;BME280_pressure;Samples;Min_cycle;Max_cycle;Signal;HPM_P1;HPM_P2
2022/01/14 00:02:15;;;;;;;;;;;3.90;99.90;;;;;;5127821;27;20215;-70
2022/01/14 00:04:41;;;;;;;;;;;3.90;99.90;;;;;;5131655;27;19976;-73
2022/01/14 00:07:07;;;;;;;;;;;3.90;99.90;;;;;;5126819;27;19912;-70
2022/01/14 00:09:34;;;;;;;;;;;3.90;99.90;;;;;;5128324;27;19922;-71
2022/01/14 00:12:03;;;;;;;;;;;3.90;99.90;;;;;;5122313;27;19916;-70
2022/01/14 00:14:41;;;;;;;;;;;3.90;99.90;;;;;;5126884;27;19907;-70
2022/01/14 00:17:08;;;;;;;;;;;3.90;99.90;;;;;;5122932;27;19912;-72
2022/01/14 00:19:33;;;;;;;;;;;3.90;99.90;;;;;;5125790;27;19920;-72
2022/01/14 00:22:04;;;;;;;;;;;3.90;99.90;;;;;;5127114;27;19963;-70
2022/01/14 00:31:38;;;;;;;;;;;3.90;99.90;;;;;;5117588;27;19911;-70
2022/01/14 00:33:06;;;;;;;;;;;3.80;99.90;;;;;;5125992;27;19914;-70
2022/01/14 00:35:30;;;;;;;;;;;3.90;99.90;;;;;;5124053;27;19911;-70
2022/01/14 00:37:56;;;;;;;;;;;3.80;99.90;;;;;;5127572;27;19964;-71
2022/01/14 00:40:22;;;;;;;;;;;3.90;99.90;;;;;;5128781;27;20365;-71
2022/01/14 00:42:48;;;;;;;;;;;4.00;99.90;;;;;;5121591;27;19912;-70
2022/01/14 00:45:14;;;;;;;;;;;4.00;99.90;;;;;;5127805;27;20312;-70
2022/01/14 00:47:40;;;;;;;;;;;4.00;99.90;;;;;;5127246;27;19916;-71
2022/01/14 00:50:07;;;;;;;;;;;4.00;99.90;;;;;;5130088;27;20031;-72
2022/01/14 00:52:33;;;;;;;;;;;4.00;99.90;;;;;;5116494;27;20010;-70
2022/01/14 00:54:58;;;;;;;;;;;4.00;99.90;;;;;;5124495;27;20077;-71
2022/01/14 00:59:14;;;;;;;;;;;4.00;99.90;;;;;;5123231;27;19912;-72
2022/01/14 01:00:13;;;;;;;;;;;4.10;99.90;;;;;;5127641;27;19911;-71
2022/01/14 01:02:38;;;;;;;;;;;4.00;99.90;;;;;;5127256;27;19931;-70
2022/01/14 01:05:04;;;;;;;;;;;4.10;99.90;;;;;;5131001;27;20336;-70
2022/01/14 01:07:30;;;;;;;;;;;4.00;99.90;;;;;;5126950;27;19917;-69
2022/01/14 01:09:55;;;;;;;;;;;3.90;99.90;;;;;;5120975;27;20015;-70
2022/01/14 01:12:34;;;;;;;;;;;3.90;99.90;;;;;;5124430;27;19911;-72
2022/01/14 01:15:06;;;;;;;;;;;3.70;99.90;;;;;;5123172;27;20357;-68
2022/01/14 01:17:32;;;;;;;;;;;3.60;99.90;;;;;;5127873;27;19912;-70
2022/01/14 01:19:57;;;;;;;;;;;3.60;99.90;;;;;;5119341;27;20129;-72
2022/01/14 01:22:23;;;;;;;;;;;3.50;99.90;;;;;;5125971;27;20006;-70
2022/01/14 01:24:49;;;;;;;;;;;3.60;99.90;;;;;;5120959;27;19983;-70
2022/01/14 01:27:17;;;;;;;;;;;3.60;99.90;;;;;;5127028;27;19918;-70
2022/01/14 01:29:54;;;;;;;;;;;3.80;99.90;;;;;;5129470;27;19945;-69
2022/01/14 01:32:20;;;;;;;;;;;3.80;99.90;;;;;;5123694;27;19920;-70
2022/01/14 01:34:45;;;;;;;;;;;3.80;99.90;;;;;;5121806;27;20364;-70
2022/01/14 01:37:11;;;;;;;;;;;3.80;99.90;;;;;;5117533;27;19929;-71
2022/01/14 01:39:37;;;;;;;;;;;3.70;99.90;;;;;;5122050;27;19998;-70
2022/01/14 01:42:08;;;;;;;;;;;3.60;99.90;;;;;;5121776;27;20392;-71
2022/01/14 01:44:34;;;;;;;;;;;3.50;99.90;;;;;;5120442;27;20012;-72
2022/01/14 01:47:00;;;;;;;;;;;3.50;99.90;;;;;;5124583;27;20353;-71
2022/01/14 01:49:28;;;;;;;;;;;3.40;99.90;;;;;;5125860;27;19964;-70
2022/01/14 01:51:53;;;;;;;;;;;3.40;99.90;;;;;;5126754;27;19912;-71
2022/01/14 01:54:20;;;;;;;;;;;3.50;99.90;;;;;;5113343;27;19957;-69
2022/01/14 01:56:46;;;;;;;;;;;3.70;99.90;;;;;;5124294;27;20040;-70
2022/01/14 01:59:14;;;;;;;;;;;3.70;99.90;;;;;;5130468;27;19918;-72
2022/01/14 02:01:40;;;;;;;;;;;3.80;99.90;;;;;;5123066;27;19911;-71
2022/01/14 02:04:06;;;;;;;;;;;3.70;99.90;;;;;;5128496;27;19915;-70
2022/01/14 02:06:32;;;;;;;;;;;3.70;99.90;;;;;;5120648;27;19915;-72
2022/01/14 02:08:58;;;;;;;;;;;3.70;99.90;;;;;;5124504;27;19948;-71
2022/01/14 02:11:24;;;;;;;;;;;3.70;99.90;;;;;;5125630;27;19918;-70
2022/01/14 02:13:51;;;;;;;;;;;3.70;99.90;;;;;;5128530;27;19919;-70
2022/01/14 02:16:58;;;;;;;;;;;3.70;99.90;;;;;;5126776;27;20262;-72
2022/01/14 02:19:27;;;;;;;;;;;3.70;99.90;;;;;;5123824;27;19908;-71
2022/01/14 02:22:13;;;;;;;;;;;3.60;99.90;;;;;;5127571;27;19916;-71
2022/01/14 02:27:06;;;;;;;;;;;3.80;99.90;;;;;;5115141;27;20073;-70
2022/01/14 02:29:32;;;;;;;;;;;3.80;99.90;;;;;;5121761;28;19998;-71
2022/01/14 02:31:58;;;;;;;;;;;3.70;99.90;;;;;;5121503;28;20034;-71
2022/01/14 02:34:23;;;;;;;;;;;3.60;99.90;;;;;;5122287;27;19922;-70
2022/01/14 02:36:49;;;;;;;;;;;3.40;99.90;;;;;;5120799;28;19919;-69
2022/01/14 02:39:16;;;;;;;;;;;3.30;99.90;;;;;;5128603;27;20285;-70
2022/01/14 02:41:44;;;;;;;;;;;3.20;99.90;;;;;;5127329;27;19964;-71
2022/01/14 02:44:18;;;;;;;;;;;3.10;99.90;;;;;;5125615;28;19920;-71
2022/01/14 02:46:52;;;;;;;;;;;3.10;99.90;;;;;;5127146;28;19912;-70
2022/01/14 02:49:18;;;;;;;;;;;3.10;99.90;;;;;;5129862;28;19911;-70
2022/01/14 02:51:43;;;;;;;;;;;3.20;99.90;;;;;;5128770;27;19934;-69
2022/01/14 02:54:20;;;;;;;;;;;3.30;99.90;;;;;;5128681;27;20006;-71
2022/01/14 02:56:47;;;;;;;;;;;3.30;99.90;;;;;;5128470;27;19919;-70
2022/01/14 02:59:13;;;;;;;;;;;3.30;99.90;;;;;;5128479;27;20067;-72
2022/01/14 03:01:40;;;;;;;;;;;3.30;99.90;;;;;;5130672;27;19911;-72
2022/01/14 03:04:07;;;;;;;;;;;3.40;99.90;;;;;;5128522;27;20007;-71
2022/01/14 03:06:32;;;;;;;;;;;3.40;99.90;;;;;;5132593;27;19920;-70
2022/01/14 03:08:58;;;;;;;;;;;3.40;99.90;;;;;;5125762;27;20330;-72
2022/01/14 03:11:36;;;;;;;;;;;3.30;99.90;;;;;;5129257;27;20072;-70
2022/01/14 03:14:02;;;;;;;;;;;3.20;99.90;;;;;;5119483;27;19942;-70
2022/01/14 03:16:29;;;;;;;;;;;3.10;99.90;;;;;;5131065;27;19926;-70
2022/01/14 03:19:04;;;;;;;;;;;3.20;99.90;;;;;;5130651;27;19989;-70
2022/01/14 03:21:36;;;;;;;;;;;3.20;99.90;;;;;;5133449;27;19952;-70
2022/01/14 03:24:13;;;;;;;;;;;3.10;99.90;;;;;;5118766;27;19991;-70
2022/01/14 03:26:39;;;;;;;;;;;3.10;99.90;;;;;;5119909;27;19977;-71
2022/01/14 03:29:04;;;;;;;;;;;3.10;99.90;;;;;;5129292;27;19911;-72
2022/01/14 03:31:30;;;;;;;;;;;3.00;99.90;;;;;;5128260;27;19958;-72
2022/01/14 03:33:56;;;;;;;;;;;2.90;99.90;;;;;;5129353;27;19911;-71
2022/01/14 03:36:21;;;;;;;;;;;2.90;99.90;;;;;;5122814;27;20785;-72
2022/01/14 03:38:47;;;;;;;;;;;2.90;99.90;;;;;;5127716;27;19923;-71
2022/01/14 03:41:12;;;;;;;;;;;2.90;99.90;;;;;;5131962;27;20376;-71
2022/01/14 03:43:40;;;;;;;;;;;2.90;99.90;;;;;;5128249;27;20281;-72
2022/01/14 03:46:05;;;;;;;;;;;3.00;99.90;;;;;;5132379;27;20365;-71
2022/01/14 03:48:31;;;;;;;;;;;2.90;99.90;;;;;;5127408;27;19918;-71
2022/01/14 03:50:57;;;;;;;;;;;2.90;99.90;;;;;;5122089;27;19972;-71
2022/01/14 03:53:22;;;;;;;;;;;3.00;99.90;;;;;;5131366;27;19915;-72
2022/01/14 03:55:48;;;;;;;;;;;3.00;99.90;;;;;;5139101;27;19915;-71
2022/01/14 03:58:13;;;;;;;;;;;3.20;99.90;;;;;;5140392;27;19974;-71
2022/01/14 04:00:39;;;;;;;;;;;3.20;99.90;;;;;;5130583;27;19960;-72
2022/01/14 04:03:05;;;;;;;;;;;3.20;99.90;;;;;;5138238;27;19916;-73
2022/01/14 04:05:31;;;;;;;;;;;3.20;99.90;;;;;;5132415;27;19927;-71
2022/01/14 04:07:57;;;;;;;;;;;3.20;99.90;;;;;;5123885;27;20270;-71
2022/01/14 04:10:25;;;;;;;;;;;3.30;99.90;;;;;;5130613;27;19915;-71
2022/01/14 04:12:57;;;;;;;;;;;3.30;99.90;;;;;;5129963;27;19918;-71
2022/01/14 04:15:40;;;;;;;;;;;3.20;99.90;;;;;;5131003;27;19922;-71
2022/01/14 04:18:17;;;;;;;;;;;3.10;99.90;;;;;;5116416;27;19911;-72
2022/01/14 04:20:43;;;;;;;;;;;3.00;99.90;;;;;;5130614;27;20243;-71
2022/01/14 04:23:13;;;;;;;;;;;3.00;99.90;;;;;;5130440;27;19912;-71
2022/01/14 04:25:39;;;;;;;;;;;3.00;99.90;;;;;;5126100;27;20123;-71
2022/01/14 04:28:05;;;;;;;;;;;3.00;99.90;;;;;;5113696;27;20492;-71
2022/01/14 04:30:31;;;;;;;;;;;3.00;99.90;;;;;;5129765;27;19922;-71
2022/01/14 04:32:57;;;;;;;;;;;2.90;99.90;;;;;;5125122;27;20107;-72
2022/01/14 04:35:23;;;;;;;;;;;2.90;99.90;;;;;;5127883;27;19922;-72
2022/01/14 04:37:49;;;;;;;;;;;2.90;99.90;;;;;;5125496;27;19915;-71
2022/01/14 04:40:15;;;;;;;;;;;2.80;99.90;;;;;;5130775;27;20396;-71
2022/01/14 04:42:42;;;;;;;;;;;2.80;99.90;;;;;;5129321;27;19911;-71
2022/01/14 04:45:08;;;;;;;;;;;2.70;99.90;;;;;;5122065;27;19923;-72
2022/01/14 04:47:44;;;;;;;;;;;2.70;99.90;;;;;;5121730;27;19911;-72
2022/01/14 04:50:11;;;;;;;;;;;2.70;99.90;;;;;;5130785;27;19919;-73
2022/01/14 04:52:36;;;;;;;;;;;2.70;99.90;;;;;;5128524;27;20409;-71
2022/01/14 04:55:02;;;;;;;;;;;2.80;99.90;;;;;;5122021;27;20006;-71
2022/01/14 04:57:28;;;;;;;;;;;2.80;99.90;;;;;;5123236;27;19923;-71
2022/01/14 04:59:53;;;;;;;;;;;2.90;99.90;;;;;;5128345;27;19920;-71
2022/01/14 05:02:19;;;;;;;;;;;2.80;99.90;;;;;;5125179;27;19999;-71
2022/01/14 05:04:46;;;;;;;;;;;2.90;99.90;;;;;;5125038;27;19915;-71
2022/01/14 05:07:21;;;;;;;;;;;3.10;99.90;;;;;;5124185;27;19912;-71
2022/01/14 05:09:56;;;;;;;;;;;3.10;99.90;;;;;;5125147;27;19912;-71
2022/01/14 05:12:22;;;;;;;;;;;3.10;99.90;;;;;;5130130;27;19911;-72
2022/01/14 05:14:48;;;;;;;;;;;3.10;99.90;;;;;;5130130;27;19934;-71
2022/01/14 05:17:14;;;;;;;;;;;3.10;99.90;;;;;;5120022;27;19912;-71
2022/01/14 05:19:39;;;;;;;;;;;3.00;99.90;;;;;;5124622;27;19987;-71
2022/01/14 05:22:05;;;;;;;;;;;3.00;99.90;;;;;;5129350;27;19934;-70
2022/01/14 05:24:31;;;;;;;;;;;2.90;99.90;;;;;;5128352;27;19942;-71
2022/01/14 05:26:56;;;;;;;;;;;2.90;99.90;;;;;;5123735;27;19934;-71
2022/01/14 05:29:22;;;;;;;;;;;2.80;99.90;;;;;;5127787;27;19959;-72
2022/01/14 05:31:50;;;;;;;;;;;2.70;99.90;;;;;;5122284;27;19912;-71
2022/01/14 05:34:15;;;;;;;;;;;2.70;99.90;;;;;;5122276;27;19912;-71
2022/01/14 05:36:41;;;;;;;;;;;2.70;99.90;;;;;;5123961;27;19982;-72
2022/01/14 05:39:07;;;;;;;;;;;2.60;99.90;;;;;;5129070;27;20017;-72
2022/01/14 05:41:32;;;;;;;;;;;2.60;99.90;;;;;;5122155;27;19927;-71
2022/01/14 05:43:58;;;;;;;;;;;2.60;99.90;;;;;;5122855;27;19919;-72
2022/01/14 05:46:24;;;;;;;;;;;2.70;99.90;;;;;;5126143;27;19977;-70
2022/01/14 05:48:49;;;;;;;;;;;2.60;99.90;;;;;;5128850;27;20006;-71
2022/01/14 05:51:15;;;;;;;;;;;2.60;99.90;;;;;;5130161;27;20396;-71
2022/01/14 05:53:41;;;;;;;;;;;2.60;99.90;;;;;;5129932;27;20082;-71
2022/01/14 05:56:06;;;;;;;;;;;2.70;99.90;;;;;;5121013;27;20039;-72
2022/01/14 05:58:32;;;;;;;;;;;2.70;99.90;;;;;;5127528;27;20011;-70
2022/01/14 06:00:57;;;;;;;;;;;2.70;99.90;;;;;;5130491;27;19919;-72
2022/01/14 06:03:23;;;;;;;;;;;2.70;99.90;;;;;;5122836;27;19965;-72
2022/01/14 06:05:49;;;;;;;;;;;2.80;99.90;;;;;;5121173;27;19959;-72
2022/01/14 06:08:14;;;;;;;;;;;2.80;99.90;;;;;;5126162;27;20000;-72
2022/01/14 06:10:40;;;;;;;;;;;2.80;99.90;;;;;;5124382;27;19927;-70
2022/01/14 06:13:05;;;;;;;;;;;2.80;99.90;;;;;;5130787;27;19999;-72
2022/01/14 06:15:31;;;;;;;;;;;2.90;99.90;;;;;;5128145;27;20449;-71
2022/01/14 06:17:57;;;;;;;;;;;2.80;99.90;;;;;;5125731;27;19911;-70
2022/01/14 06:20:23;;;;;;;;;;;2.80;99.90;;;;;;5126855;27;19919;-71
2022/01/14 06:22:49;;;;;;;;;;;2.80;99.90;;;;;;5119457;27;19911;-71
2022/01/14 06:25:15;;;;;;;;;;;2.70;99.90;;;;;;5128964;27;20405;-72
2022/01/14 06:27:40;;;;;;;;;;;2.60;99.90;;;;;;5119460;27;19990;-72
2022/01/14 06:30:07;;;;;;;;;;;2.60;99.90;;;;;;5124659;28;20322;-71
2022/01/14 06:32:33;;;;;;;;;;;2.60;99.90;;;;;;5128726;28;19995;-71
2022/01/14 06:34:59;;;;;;;;;;;2.60;99.90;;;;;;5125561;28;20391;-72
2022/01/14 06:37:24;;;;;;;;;;;2.60;99.90;;;;;;5116677;27;19932;-71
2022/01/14 06:39:51;;;;;;;;;;;2.70;99.90;;;;;;5127648;28;19960;-73
2022/01/14 06:42:16;;;;;;;;;;;2.80;99.90;;;;;;5122476;28;20472;-72
2022/01/14 06:44:42;;;;;;;;;;;2.80;99.90;;;;;;5126598;28;19966;-72
2022/01/14 06:47:08;;;;;;;;;;;2.80;99.90;;;;;;5122717;27;19977;-71
2022/01/14 06:49:33;;;;;;;;;;;2.80;99.90;;;;;;5129829;28;20314;-73
2022/01/14 06:51:59;;;;;;;;;;;2.90;99.90;;;;;;5121627;28;19912;-71
2022/01/14 06:54:24;;;;;;;;;;;2.80;99.90;;;;;;5127118;28;19912;-71
2022/01/14 06:56:50;;;;;;;;;;;2.90;99.90;;;;;;5114121;28;20270;-72
2022/01/14 06:59:16;;;;;;;;;;;2.80;99.90;;;;;;5117534;27;19911;-71
2022/01/14 07:01:41;;;;;;;;;;;2.80;99.90;;;;;;5116851;27;20357;-72
2022/01/14 07:04:07;;;;;;;;;;;2.80;99.90;;;;;;5126664;28;19916;-70
2022/01/14 07:06:33;;;;;;;;;;;2.80;99.90;;;;;;5112698;28;19912;-72
2022/01/14 07:08:58;;;;;;;;;;;2.80;99.90;;;;;;5119645;28;20006;-72
2022/01/14 07:11:29;;;;;;;;;;;2.80;99.90;;;;;;5121146;28;19908;-72
2022/01/14 07:13:55;;;;;;;;;;;2.80;99.90;;;;;;5123058;27;19912;-71
2022/01/14 07:16:20;;;;;;;;;;;2.80;99.90;;;;;;5122948;28;19921;-71
2022/01/14 07:18:48;;;;;;;;;;;2.80;99.90;;;;;;5126337;28;19918;-72
2022/01/14 07:21:14;;;;;;;;;;;2.90;99.90;;;;;;5125736;28;19984;-72
2022/01/14 07:23:40;;;;;;;;;;;2.90;99.90;;;;;;5114656;28;20237;-71
2022/01/14 07:26:06;;;;;;;;;;;3.00;99.90;;;;;;5126682;27;19911;-72
2022/01/14 07:28:31;;;;;;;;;;;3.20;99.90;;;;;;5127616;28;19990;-71
2022/01/14 07:30:57;;;;;;;;;;;3.30;99.90;;;;;;5123625;28;19915;-72
2022/01/14 07:33:22;;;;;;;;;;;3.40;99.90;;;;;;5128840;27;19915;-72
2022/01/14 07:35:49;;;;;;;;;;;3.50;99.90;;;;;;5130292;28;19907;-72
2022/01/14 07:38:15;;;;;;;;;;;3.60;99.90;;;;;;5123015;28;19908;-72
2022/01/14 07:40:40;;;;;;;;;;;3.70;99.90;;;;;;5132813;27;19926;-72
2022/01/14 07:43:06;;;;;;;;;;;3.70;99.90;;;;;;5122908;27;20002;-72
2022/01/14 07:45:32;;;;;;;;;;;3.70;99.90;;;;;;5127989;27;19916;-72
2022/01/14 07:47:57;;;;;;;;;;;3.80;99.90;;;;;;5128672;27;20364;-74
2022/01/14 07:50:23;;;;;;;;;;;3.80;99.90;;;;;;5126460;27;19964;-72
2022/01/14 07:52:49;;;;;;;;;;;3.80;99.90;;;;;;5128343;27;19954;-73
2022/01/14 07:55:14;;;;;;;;;;;3.80;99.90;;;;;;5131544;27;19991;-71
2022/01/14 07:57:40;;;;;;;;;;;3.90;99.90;;;;;;5131190;27;20337;-72
2022/01/14 08:00:06;;;;;;;;;;;3.90;99.90;;;;;;5128265;27;19907;-72
2022/01/14 08:02:38;;;;;;;;;;;4.10;99.90;;;;;;5126257;27;20385;-66
2022/01/14 08:05:07;;;;;;;;;;;4.20;99.90;;;;;;5123408;27;19916;-66
2022/01/14 08:07:35;;;;;;;;;;;4.20;99.90;;;;;;5122436;27;19915;-66
2022/01/14 08:10:01;;;;;;;;;;;4.20;99.90;;;;;;5121834;27;19908;-67
2022/01/14 08:12:26;;;;;;;;;;;4.30;99.90;;;;;;5126053;27;19912;-68
2022/01/14 08:14:52;;;;;;;;;;;4.40;99.90;;;;;;5116780;27;20684;-68
2022/01/14 08:17:20;;;;;;;;;;;4.70;99.90;;;;;;5124436;27;20262;-69
2022/01/14 08:19:45;;;;;;;;;;;4.70;99.90;;;;;;5122911;27;19908;-69
2022/01/14 08:22:11;;;;;;;;;;;4.80;99.90;;;;;;5120284;27;19919;-70
2022/01/14 08:24:37;;;;;;;;;;;5.20;99.90;;;;;;5121636;27;20270;-68
2022/01/14 08:27:03;;;;;;;;;;;5.50;99.90;;;;;;5117750;27;19998;-70
2022/01/14 08:29:29;;;;;;;;;;;5.80;99.90;;;;;;5121396;27;19912;-70
2022/01/14 08:31:55;;;;;;;;;;;5.90;99.90;;;;;;5127570;27;19911;-70
2022/01/14 08:34:21;;;;;;;;;;;5.90;99.90;;;;;;5130673;27;19914;-70
2022/01/14 08:36:47;;;;;;;;;;;6.20;99.90;;;;;;5117321;27;19998;-71
2022/01/14 08:39:13;;;;;;;;;;;6.30;99.90;;;;;;5123615;27;19919;-70
2022/01/14 08:41:39;;;;;;;;;;;6.30;99.90;;;;;;5131408;27;19918;-71
2022/01/14 08:44:04;;;;;;;;;;;6.50;99.90;;;;;;5131675;27;20284;-69
2022/01/14 08:46:30;;;;;;;;;;;6.50;99.90;;;;;;5117352;27;20295;-68
2022/01/14 08:48:59;;;;;;;;;;;6.70;99.90;;;;;;5129133;27;20559;-71
2022/01/14 08:51:27;;;;;;;;;;;6.80;99.90;;;;;;5122341;27;19912;-69
2022/01/14 08:53:53;;;;;;;;;;;6.80;99.90;;;;;;5118155;27;19963;-70
2022/01/14 08:56:19;;;;;;;;;;;6.80;99.90;;;;;;5119110;27;20369;-72
2022/01/14 08:58:45;;;;;;;;;;;6.80;99.90;;;;;;5117312;27;19911;-70
2022/01/14 09:01:10;;;;;;;;;;;7.00;99.90;;;;;;5119013;27;19915;-68
2022/01/14 09:03:36;;;;;;;;;;;7.10;99.90;;;;;;5121540;27;19915;-68
2022/01/14 09:06:01;;;;;;;;;;;7.10;99.90;;;;;;5131463;27;19919;-71
2022/01/14 09:08:27;;;;;;;;;;;7.30;99.90;;;;;;5124702;27;19912;-67
2022/01/14 09:10:53;;;;;;;;;;;7.50;99.90;;;;;;5131909;27;19916;-69
2022/01/14 09:13:18;;;;;;;;;;;7.50;99.90;;;;;;5128100;27;20314;-68
2022/01/14 09:15:45;;;;;;;;;;;7.50;99.90;;;;;;5127858;27;19965;-68
2022/01/14 09:18:10;;;;;;;;;;;7.60;99.90;;;;;;5129996;27;19912;-67
2022/01/14 09:20:36;;;;;;;;;;;7.60;99.90;;;;;;5129653;27;19934;-72
2022/01/14 09:23:03;;;;;;;;;;;7.70;99.90;;;;;;5123468;27;20392;-69
2022/01/14 09:25:28;;;;;;;;;;;7.70;99.90;;;;;;5134067;27;20384;-68
2022/01/14 09:27:54;;;;;;;;;;;8.00;99.90;;;;;;5125089;27;19912;-70
2022/01/14 09:30:21;;;;;;;;;;;8.10;99.90;;;;;;5131161;27;20303;-69
2022/01/14 09:32:46;;;;;;;;;;;8.40;99.90;;;;;;5119085;27;19922;-69
2022/01/14 09:35:13;;;;;;;;;;;8.40;99.90;;;;;;5124949;27;20328;-67
2022/01/14 09:37:44;;;;;;;;;;;8.40;99.90;;;;;;5131581;27;19918;-71
2022/01/14 09:40:10;;;;;;;;;;;8.40;99.90;;;;;;5122245;27;19912;-67
2022/01/14 09:42:36;;;;;;;;;;;8.50;99.90;;;;;;5129807;27;20028;-70
2022/01/14 09:45:02;;;;;;;;;;;8.40;99.90;;;;;;5132071;27;19911;-70
2022/01/14 09:47:28;;;;;;;;;;;8.40;99.90;;;;;;5129107;27;19919;-68
2022/01/14 09:49:53;;;;;;;;;;;8.40;99.90;;;;;;5121299;27;19916;-67
2022/01/14 09:52:19;;;;;;;;;;;8.40;99.90;;;;;;5122632;27;20024;-69
2022/01/14 09:54:45;;;;;;;;;;;8.50;99.90;;;;;;5128077;27;20020;-72
2022/01/14 09:57:13;;;;;;;;;;;8.40;99.90;;;;;;5132479;27;19915;-70
2022/01/14 09:59:39;;;;;;;;;;;8.40;99.90;;;;;;5132282;27;19911;-71
2022/01/14 10:02:05;;;;;;;;;;;8.60;99.90;;;;;;5132256;27;20022;-69
2022/01/14 10:04:30;;;;;;;;;;;8.60;99.90;;;;;;5116700;27;19922;-67
2022/01/14 10:06:57;;;;;;;;;;;8.60;99.90;;;;;;5120375;27;19911;-67
2022/01/14 10:09:40;;;;;;;;;;;8.60;99.90;;;;;;5126747;27;19919;-75
2022/01/14 10:12:15;;;;;;;;;;;8.70;99.90;;;;;;5121834;27;19912;-71
2022/01/14 10:15:02;;;;;;;;;;;8.80;99.90;;;;;;5131825;27;19918;-69
2022/01/14 10:17:38;;;;;;;;;;;8.90;99.90;;;;;;5130360;27;19955;-68
2022/01/14 10:20:05;;;;;;;;;;;9.10;99.90;;;;;;5122226;27;19920;-68
2022/01/14 10:22:32;;;;;;;;;;;9.10;99.90;;;;;;5125554;27;19912;-69
2022/01/14 10:25:00;;;;;;;;;;;9.20;99.90;;;;;;5126341;27;19924;-68
2022/01/14 10:27:49;;;;;;;;;;;9.40;99.90;;;;;;5123296;27;19911;-71
2022/01/14 10:30:20;;;;;;;;;;;9.40;99.90;;;;;;5113166;28;19912;-72
2022/01/14 10:32:57;;;;;;;;;;;9.40;99.90;;;;;;5126007;28;19911;-70
2022/01/14 10:35:26;;;;;;;;;;;9.30;99.90;;;;;;5123495;28;19974;-69
2022/01/14 10:37:59;;;;;;;;;;;9.20;99.90;;;;;;5120646;28;19918;-70
2022/01/14 10:40:28;;;;;;;;;;;9.10;99.90;;;;;;5131927;27;19917;-72
2022/01/14 10:43:03;;;;;;;;;;;9.20;99.90;;;;;;5127989;27;19919;-67
2022/01/14 10:45:30;;;;;;;;;;;9.30;99.90;;;;;;5133657;27;19919;-70
2022/01/14 10:47:59;;;;;;;;;;;9.40;99.90;;;;;;5127570;27;19918;-69
2022/01/14 10:50:26;;;;;;;;;;;9.50;99.90;;;;;;5124855;27;20006;-70
2022/01/14 10:52:51;;;;;;;;;;;9.60;99.90;;;;;;5122744;28;19911;-68
2022/01/14 10:55:28;;;;;;;;;;;9.70;99.90;;;;;;5125164;27;19915;-73
2022/01/14 10:57:53;;;;;;;;;;;9.80;99.90;;;;;;5129062;27;19916;-69
2022/01/14 11:00:20;;;;;;;;;;;9.80;99.90;;;;;;5130319;28;19915;-73
2022/01/14 11:02:48;;;;;;;;;;;9.80;99.90;;;;;;5129727;28;20400;-73
2022/01/14 11:05:19;;;;;;;;;;;9.80;99.90;;;;;;5123692;27;19923;-69
2022/01/14 11:07:52;;;;;;;;;;;9.70;99.90;;;;;;5118103;28;20029;-69
2022/01/14 11:10:23;;;;;;;;;;;9.60;99.90;;;;;;5126725;27;19919;-68
2022/01/14 11:12:51;;;;;;;;;;;9.70;99.90;;;;;;5118647;27;19924;-70
2022/01/14 11:15:17;;;;;;;;;;;9.70;99.90;;;;;;5129267;27;20060;-69
2022/01/14 11:17:46;;;;;;;;;;;9.70;99.90;;;;;;5130990;27;20357;-69
2022/01/14 11:20:12;;;;;;;;;;;9.80;99.90;;;;;;5135458;27;20375;-71
2022/01/14 11:25:22;;;;;;;;;;;9.90;99.90;;;;;;5130777;27;20532;-68
2022/01/14 11:27:53;;;;;;;;;;;9.90;99.90;;;;;;5129740;27;19912;-70
2022/01/14 11:30:19;;;;;;;;;;;9.90;99.90;;;;;;5131280;27;19918;-67
2022/01/14 11:33:11;;;;;;;;;;;9.80;99.90;;;;;;5127355;27;20006;-72
2022/01/14 11:35:37;;;;;;;;;;;9.80;99.90;;;;;;5143626;27;20061;-70
2022/01/14 11:38:23;;;;;;;;;;;9.80;99.90;;;;;;5126840;27;19915;-71
2022/01/14 11:40:49;;;;;;;;;;;9.80;99.90;;;;;;5134357;27;19980;-69
2022/01/14 11:43:33;;;;;;;;;;;9.90;99.90;;;;;;5123392;27;19912;-69
2022/01/14 11:46:09;;;;;;;;;;;9.80;99.90;;;;;;5125372;27;19959;-69
2022/01/14 11:48:37;;;;;;;;;;;9.70;99.90;;;;;;5130003;27;20422;-74
2022/01/14 11:51:04;;;;;;;;;;;9.80;99.90;;;;;;5129364;27;19919;-69
2022/01/14 11:53:37;;;;;;;;;;;9.80;99.90;;;;;;5129603;27;19975;-71
2022/01/14 11:56:07;;;;;;;;;;;9.70;99.90;;;;;;5129487;27;19922;-72
2022/01/14 11:58:34;;;;;;;;;;;9.70;99.90;;;;;;5126086;27;19911;-72
2022/01/14 12:01:00;;;;;;;;;;;9.70;99.90;;;;;;5132662;27;19908;-68
2022/01/14 12:03:28;;;;;;;;;;;9.70;99.90;;;;;;5127199;27;19922;-70
2022/01/14 12:06:06;;;;;;;;;;;9.70;99.90;;;;;;5131782;27;19984;-69
2022/01/14 12:08:32;;;;;;;;;;;9.60;99.90;;;;;;5125590;27;19911;-69
2022/01/14 12:11:07;;;;;;;;;;;9.70;99.90;;;;;;5129779;27;19919;-68
2022/01/14 12:13:41;;;;;;;;;;;9.50;99.90;;;;;;5127887;27;20365;-68
2022/01/14 12:16:10;;;;;;;;;;;9.50;99.90;;;;;;5127522;27;19923;-68
2022/01/14 12:18:54;;;;;;;;;;;9.50;99.90;;;;;;5126910;27;19911;-68
2022/01/14 12:21:41;;;;;;;;;;;9.40;99.90;;;;;;5133017;27;19907;-68
2022/01/14 12:24:14;;;;;;;;;;;9.30;99.90;;;;;;5125389;27;19924;-68
2022/01/14 12:26:43;;;;;;;;;;;9.40;99.90;;;;;;5126996;27;19911;-69
2022/01/14 12:29:13;;;;;;;;;;;9.40;99.90;;;;;;5130360;27;20434;-68
2022/01/14 12:32:04;;;;;;;;;;;9.40;99.90;;;;;;5117399;27;19934;-67
2022/01/14 12:34:34;;;;;;;;;;;9.40;99.90;;;;;;5128382;27;20003;-69
2022/01/14 12:37:00;;;;;;;;;;;9.30;99.90;;;;;;5127570;27;19957;-68
2022/01/14 12:39:26;;;;;;;;;;;9.20;99.90;;;;;;5128441;27;19915;-69
2022/01/14 12:41:52;;;;;;;;;;;9.10;99.90;;;;;;5131054;27;19911;-69
2022/01/14 12:44:18;;;;;;;;;;;9.10;99.90;;;;;;5116159;27;19912;-69
2022/01/14 12:49:16;;;;;;;;;;;9.20;99.90;;;;;;5118000;27;19916;-68
2022/01/14 12:51:42;;;;;;;;;;;9.20;99.90;;;;;;5118885;27;19916;-70
2022/01/14 12:54:08;;;;;;;;;;;9.30;99.90;;;;;;5121017;27;20445;-71
2022/01/14 12:56:35;;;;;;;;;;;9.40;99.90;;;;;;5117244;27;19916;-68
2022/01/14 12:59:05;;;;;;;;;;;9.40;99.90;;;;;;5117671;27;19961;-70
2022/01/14 13:01:33;;;;;;;;;;;9.50;99.90;;;;;;5120652;27;19916;-68
2022/01/14 13:04:00;;;;;;;;;;;9.50;99.90;;;;;;5119440;27;19953;-69
2022/01/14 13:06:27;;;;;;;;;;;9.50;99.90;;;;;;5122127;27;19968;-69
2022/01/14 13:08:53;;;;;;;;;;;9.50;99.90;;;;;;5126372;27;19939;-69
2022/01/14 13:11:19;;;;;;;;;;;9.40;99.90;;;;;;5126835;27;19908;-67
2022/01/14 13:13:56;;;;;;;;;;;9.40;99.90;;;;;;5127722;27;19912;-71
2022/01/14 13:16:22;;;;;;;;;;;9.40;99.90;;;;;;5130716;27;19985;-69
2022/01/14 13:18:48;;;;;;;;;;;9.30;99.90;;;;;;5131112;27;20388;-71
2022/01/14 13:21:14;;;;;;;;;;;9.30;99.90;;;;;;5133447;27;19911;-69
2022/01/14 13:23:45;;;;;;;;;;;9.30;99.90;;;;;;5132301;27;19926;-69
2022/01/14 13:26:11;;;;;;;;;;;9.30;99.90;;;;;;5133053;27;20400;-70
2022/01/14 13:28:37;;;;;;;;;;;9.40;99.90;;;;;;5123290;27;20018;-68
2022/01/14 13:31:08;;;;;;;;;;;9.40;99.90;;;;;;5127459;27;20358;-69
2022/01/14 13:33:37;;;;;;;;;;;9.50;99.90;;;;;;5119846;27;20282;-69
2022/01/14 13:36:03;;;;;;;;;;;9.40;99.90;;;;;;5127941;27;19923;-68
2022/01/14 13:38:28;;;;;;;;;;;9.50;99.90;;;;;;5131593;27;19914;-69
2022/01/14 13:40:56;;;;;;;;;;;9.60;99.90;;;;;;5118890;27;19911;-69
2022/01/14 13:43:30;;;;;;;;;;;9.50;99.90;;;;;;5125045;27;19911;-68
2022/01/14 13:46:02;;;;;;;;;;;9.50;99.90;;;;;;5131699;27;20372;-67
2022/01/14 13:48:28;;;;;;;;;;;9.40;99.90;;;;;;5131234;27;20258;-68
2022/01/14 13:50:56;;;;;;;;;;;9.30;99.90;;;;;;5133019;27;19964;-69
2022/01/14 13:53:27;;;;;;;;;;;9.20;99.90;;;;;;5118740;27;20276;-69
2022/01/14 13:55:55;;;;;;;;;;;9.20;99.90;;;;;;5133515;27;19916;-70
2022/01/14 13:58:22;;;;;;;;;;;9.20;99.90;;;;;;5131157;27;19915;-68
2022/01/14 14:00:51;;;;;;;;;;;9.20;99.90;;;;;;5131639;27;19915;-68
2022/01/14 14:03:40;;;;;;;;;;;9.30;99.90;;;;;;5129668;27;20293;-67
2022/01/14 14:06:13;;;;;;;;;;;9.30;99.90;;;;;;5128369;27;20130;-68
2022/01/14 14:08:50;;;;;;;;;;;9.30;99.90;;;;;;5128305;27;20452;-67
2022/01/14 14:16:59;;;;;;;;;;;9.10;99.90;;;;;;5134277;27;19937;-68
2022/01/14 14:19:28;;;;;;;;;;;8.90;99.90;;;;;;5132732;27;20359;-69
2022/01/14 14:22:09;;;;;;;;;;;9.00;99.90;;;;;;5130839;27;19911;-68
2022/01/14 14:24:35;;;;;;;;;;;8.80;99.90;;;;;;5123607;27;19915;-68
2022/01/14 14:27:28;;;;;;;;;;;8.80;99.90;;;;;;5128119;27;20326;-67
2022/01/14 14:30:01;;;;;;;;;;;8.80;99.90;;;;;;5124689;28;19912;-68
2022/01/14 14:32:36;;;;;;;;;;;8.80;99.90;;;;;;5123948;27;20006;-69
2022/01/14 14:35:07;;;;;;;;;;;8.80;99.90;;;;;;5124568;27;20061;-67
2022/01/14 14:37:36;;;;;;;;;;;8.90;99.90;;;;;;5126671;28;19912;-68
2022/01/14 14:40:04;;;;;;;;;;;8.80;99.90;;;;;;5129478;27;19914;-68
2022/01/14 14:42:30;;;;;;;;;;;8.80;99.90;;;;;;5120293;27;20019;-68
2022/01/14 14:44:55;;;;;;;;;;;8.90;99.90;;;;;;5126618;27;20392;-68
2022/01/14 14:47:21;;;;;;;;;;;8.80;99.90;;;;;;5128557;28;19923;-68
2022/01/14 14:49:47;;;;;;;;;;;8.90;99.90;;;;;;5130334;27;19958;-68
2022/01/14 14:52:13;;;;;;;;;;;8.90;99.90;;;;;;5131560;27;20320;-69
2022/01/14 14:54:39;;;;;;;;;;;8.80;99.90;;;;;;5133271;27;20559;-67
2022/01/14 14:57:05;;;;;;;;;;;8.90;99.90;;;;;;5132384;27;19950;-68